sensor_id;sensor_type;location;lat;lon;timestamp;P1;durP1;ratioP1;P2;durP2;ratioP2
5684;SDS011;2865;53.114;9.130;2023-04-24T00:01:05;3.57;;;3.27;;
5684;SDS011;2865;53.114;9.130;2023-04-24T00:03:30;3.60;;;3.30;;
5684;SDS011;2865;53.114;9.130;2023-04-24T00:05:55;3.90;;;3.60;;
5684;SDS011;2865;53.114;9.130;2023-04-24T00:08:21;3.10;;;2.90;;
5684;SDS011;2865;53.114;9.130;2023-04-24T00:10:46;3.20;;;3.00;;
5684;SDS011;2865;53.114;9.130;2023-04-24T00:13:11;3.00;;;2.80;;
5684;SDS011;2865;53.114;9.130;2023-04-24T00:15:37;3.33;;;3.03;;
5684;SDS011;2865;53.114;9.130;2023-04-24T00:18:02;3.10;;;2.87;;
5684;SDS011;2865;53.114;9.130;2023-04-24T00:20:27;3.50;;;3.20;;
5684;SDS011;2865;53.114;9.130;2023-04-24T00:22:53;4.20;;;3.30;;
5684;SDS011;2865;53.114;9.130;2023-04-24T00:25:18;3.60;;;3.27;;
5684;SDS011;2865;53.114;9.130;2023-04-24T00:27:43;2.97;;;2.77;;
5684;SDS011;2865;53.114;9.130;2023-04-24T00:30:09;3.43;;;3.23;;
5684;SDS011;2865;53.114;9.130;2023-04-24T00:32:34;2.90;;;2.70;;
5684;SDS011;2865;53.114;9.130;2023-04-24T00:34:59;3.20;;;3.00;;
5684;SDS011;2865;53.114;9.130;2023-04-24T00:37:25;2.67;;;2.57;;
5684;SDS011;2865;53.114;9.130;2023-04-24T00:39:50;3.27;;;2.67;;
5684;SDS011;2865;53.114;9.130;2023-04-24T00:42:15;3.03;;;2.70;;
5684;SDS011;2865;53.114;9.130;2023-04-24T00:44:41;3.07;;;2.93;;
5684;SDS011;2865;53.114;9.130;2023-04-24T00:47:06;3.07;;;2.87;;
5684;SDS011;2865;53.114;9.130;2023-04-24T00:49:31;3.67;;;2.90;;
5684;SDS011;2865;53.114;9.130;2023-04-24T00:51:56;2.60;;;2.40;;
5684;SDS011;2865;53.114;9.130;2023-04-24T00:54:22;3.53;;;2.67;;
5684;SDS011;2865;53.114;9.130;2023-04-24T00:56:47;2.57;;;2.47;;
5684;SDS011;2865;53.114;9.130;2023-04-24T00:59:13;2.90;;;2.70;;
5684;SDS011;2865;53.114;9.130;2023-04-24T01:01:38;2.63;;;2.43;;
5684;SDS011;2865;53.114;9.130;2023-04-24T01:04:03;2.60;;;2.40;;
5684;SDS011;2865;53.114;9.130;2023-04-24T01:06:29;2.80;;;2.60;;
5684;SDS011;2865;53.114;9.130;2023-04-24T01:08:54;5.37;;;2.77;;
5684;SDS011;2865;53.114;9.130;2023-04-24T01:11:19;3.73;;;2.70;;
5684;SDS011;2865;53.114;9.130;2023-04-24T01:13:44;2.57;;;2.47;;
5684;SDS011;2865;53.114;9.130;2023-04-24T01:16:10;2.50;;;2.40;;
5684;SDS011;2865;53.114;9.130;2023-04-24T01:18:35;3.27;;;2.23;;
5684;SDS011;2865;53.114;9.130;2023-04-24T01:21:02;2.60;;;2.50;;
5684;SDS011;2865;53.114;9.130;2023-04-24T01:23:26;2.33;;;2.23;;
5684;SDS011;2865;53.114;9.130;2023-04-24T01:25:51;2.73;;;2.53;;
5684;SDS011;2865;53.114;9.130;2023-04-24T01:28:16;2.53;;;2.37;;
5684;SDS011;2865;53.114;9.130;2023-04-24T01:30:42;2.53;;;2.20;;
5684;SDS011;2865;53.114;9.130;2023-04-24T01:33:07;2.50;;;2.40;;
5684;SDS011;2865;53.114;9.130;2023-04-24T01:35:32;3.03;;;2.73;;
5684;SDS011;2865;53.114;9.130;2023-04-24T01:37:58;14.03;;;3.07;;
5684;SDS011;2865;53.114;9.130;2023-04-24T01:40:23;2.50;;;2.30;;
5684;SDS011;2865;53.114;9.130;2023-04-24T01:42:48;2.40;;;2.30;;
5684;SDS011;2865;53.114;9.130;2023-04-24T01:45:14;2.40;;;2.30;;
5684;SDS011;2865;53.114;9.130;2023-04-24T01:47:39;2.63;;;2.53;;
5684;SDS011;2865;53.114;9.130;2023-04-24T01:50:04;5.70;;;2.30;;
5684;SDS011;2865;53.114;9.130;2023-04-24T01:52:30;2.60;;;2.23;;
5684;SDS011;2865;53.114;9.130;2023-04-24T01:54:56;2.00;;;1.90;;
5684;SDS011;2865;53.114;9.130;2023-04-24T01:57:21;3.43;;;2.03;;
5684;SDS011;2865;53.114;9.130;2023-04-24T01:59:46;2.40;;;2.30;;
5684;SDS011;2865;53.114;9.130;2023-04-24T02:02:11;2.60;;;2.40;;
5684;SDS011;2865;53.114;9.130;2023-04-24T02:04:37;2.00;;;1.90;;
5684;SDS011;2865;53.114;9.130;2023-04-24T02:07:03;2.40;;;2.30;;
5684;SDS011;2865;53.114;9.130;2023-04-24T02:09:28;2.10;;;2.00;;
5684;SDS011;2865;53.114;9.130;2023-04-24T02:11:53;2.60;;;2.40;;
5684;SDS011;2865;53.114;9.130;2023-04-24T02:14:18;2.50;;;2.40;;
5684;SDS011;2865;53.114;9.130;2023-04-24T02:16:44;2.30;;;2.20;;
5684;SDS011;2865;53.114;9.130;2023-04-24T02:19:09;2.73;;;2.53;;
5684;SDS011;2865;53.114;9.130;2023-04-24T02:21:34;2.30;;;2.20;;
5684;SDS011;2865;53.114;9.130;2023-04-24T02:24:00;3.17;;;2.70;;
5684;SDS011;2865;53.114;9.130;2023-04-24T02:26:25;3.53;;;2.70;;
5684;SDS011;2865;53.114;9.130;2023-04-24T02:28:51;3.07;;;2.77;;
5684;SDS011;2865;53.114;9.130;2023-04-24T02:31:16;2.50;;;2.30;;
5684;SDS011;2865;53.114;9.130;2023-04-24T02:33:41;2.43;;;2.33;;
5684;SDS011;2865;53.114;9.130;2023-04-24T02:36:06;2.50;;;2.40;;
5684;SDS011;2865;53.114;9.130;2023-04-24T02:38:32;2.60;;;2.40;;
5684;SDS011;2865;53.114;9.130;2023-04-24T02:40:57;2.80;;;2.57;;
5684;SDS011;2865;53.114;9.130;2023-04-24T02:43:23;2.53;;;2.43;;
5684;SDS011;2865;53.114;9.130;2023-04-24T02:45:48;4.10;;;2.93;;
5684;SDS011;2865;53.114;9.130;2023-04-24T02:48:14;2.80;;;2.33;;
5684;SDS011;2865;53.114;9.130;2023-04-24T02:50:39;2.83;;;2.63;;
5684;SDS011;2865;53.114;9.130;2023-04-24T02:53:04;2.80;;;2.67;;
5684;SDS011;2865;53.114;9.130;2023-04-24T02:55:30;2.93;;;2.73;;
5684;SDS011;2865;53.114;9.130;2023-04-24T02:57:55;3.37;;;3.17;;
5684;SDS011;2865;53.114;9.130;2023-04-24T03:00:21;3.17;;;2.97;;
5684;SDS011;2865;53.114;9.130;2023-04-24T03:02:46;3.60;;;3.30;;
5684;SDS011;2865;53.114;9.130;2023-04-24T03:05:12;3.33;;;3.13;;
5684;SDS011;2865;53.114;9.130;2023-04-24T03:07:37;3.10;;;2.90;;
5684;SDS011;2865;53.114;9.130;2023-04-24T03:10:03;3.23;;;2.93;;
5684;SDS011;2865;53.114;9.130;2023-04-24T03:12:28;2.80;;;2.60;;
5684;SDS011;2865;53.114;9.130;2023-04-24T03:14:53;2.70;;;2.60;;
5684;SDS011;2865;53.114;9.130;2023-04-24T03:17:19;3.30;;;3.10;;
5684;SDS011;2865;53.114;9.130;2023-04-24T03:19:44;3.57;;;3.27;;
5684;SDS011;2865;53.114;9.130;2023-04-24T03:22:09;3.00;;;2.80;;
5684;SDS011;2865;53.114;9.130;2023-04-24T03:24:35;2.67;;;2.57;;
5684;SDS011;2865;53.114;9.130;2023-04-24T03:27:00;2.77;;;2.57;;
5684;SDS011;2865;53.114;9.130;2023-04-24T03:29:25;3.00;;;2.80;;
5684;SDS011;2865;53.114;9.130;2023-04-24T03:31:51;2.80;;;2.60;;
5684;SDS011;2865;53.114;9.130;2023-04-24T03:34:16;2.80;;;2.60;;
5684;SDS011;2865;53.114;9.130;2023-04-24T03:36:41;2.43;;;2.30;;
5684;SDS011;2865;53.114;9.130;2023-04-24T03:39:07;3.40;;;2.50;;
5684;SDS011;2865;53.114;9.130;2023-04-24T03:41:32;2.50;;;2.40;;
5684;SDS011;2865;53.114;9.130;2023-04-24T03:43:58;2.23;;;2.13;;
5684;SDS011;2865;53.114;9.130;2023-04-24T03:46:23;2.23;;;2.07;;
5684;SDS011;2865;53.114;9.130;2023-04-24T03:48:49;2.40;;;2.20;;
5684;SDS011;2865;53.114;9.130;2023-04-24T03:51:14;2.50;;;2.30;;
5684;SDS011;2865;53.114;9.130;2023-04-24T03:53:39;2.00;;;1.90;;
5684;SDS011;2865;53.114;9.130;2023-04-24T03:56:05;2.47;;;2.37;;
5684;SDS011;2865;53.114;9.130;2023-04-24T03:58:30;2.20;;;2.10;;
5684;SDS011;2865;53.114;9.130;2023-04-24T04:00:55;2.47;;;2.27;;
5684;SDS011;2865;53.114;9.130;2023-04-24T04:03:20;2.20;;;2.10;;
5684;SDS011;2865;53.114;9.130;2023-04-24T04:05:46;2.23;;;2.13;;
5684;SDS011;2865;53.114;9.130;2023-04-24T04:08:11;3.30;;;2.50;;
5684;SDS011;2865;53.114;9.130;2023-04-24T04:10:36;2.50;;;2.03;;
5684;SDS011;2865;53.114;9.130;2023-04-24T04:13:02;2.27;;;2.07;;
5684;SDS011;2865;53.114;9.130;2023-04-24T04:15:27;3.30;;;1.90;;
5684;SDS011;2865;53.114;9.130;2023-04-24T04:17:52;1.90;;;1.80;;
5684;SDS011;2865;53.114;9.130;2023-04-24T04:20:18;2.40;;;2.20;;
5684;SDS011;2865;53.114;9.130;2023-04-24T04:22:43;2.70;;;1.93;;
5684;SDS011;2865;53.114;9.130;2023-04-24T04:25:08;2.47;;;2.27;;
5684;SDS011;2865;53.114;9.130;2023-04-24T04:27:34;1.90;;;1.80;;
5684;SDS011;2865;53.114;9.130;2023-04-24T04:29:59;1.87;;;1.77;;
5684;SDS011;2865;53.114;9.130;2023-04-24T04:32:25;1.90;;;1.80;;
5684;SDS011;2865;53.114;9.130;2023-04-24T04:34:50;2.00;;;1.90;;
5684;SDS011;2865;53.114;9.130;2023-04-24T04:37:15;2.17;;;1.73;;
5684;SDS011;2865;53.114;9.130;2023-04-24T04:39:41;2.27;;;2.03;;
5684;SDS011;2865;53.114;9.130;2023-04-24T04:42:06;2.13;;;1.93;;
5684;SDS011;2865;53.114;9.130;2023-04-24T04:44:31;2.10;;;1.90;;
5684;SDS011;2865;53.114;9.130;2023-04-24T04:46:57;2.03;;;1.93;;
5684;SDS011;2865;53.114;9.130;2023-04-24T04:49:22;2.20;;;2.10;;
5684;SDS011;2865;53.114;9.130;2023-04-24T04:51:47;2.40;;;2.30;;
5684;SDS011;2865;53.114;9.130;2023-04-24T04:54:13;2.83;;;1.77;;
5684;SDS011;2865;53.114;9.130;2023-04-24T04:56:38;2.33;;;2.17;;
5684;SDS011;2865;53.114;9.130;2023-04-24T04:59:03;2.27;;;2.07;;
5684;SDS011;2865;53.114;9.130;2023-04-24T05:01:28;2.10;;;2.00;;
5684;SDS011;2865;53.114;9.130;2023-04-24T05:03:54;2.30;;;2.20;;
5684;SDS011;2865;53.114;9.130;2023-04-24T05:06:19;2.27;;;2.17;;
5684;SDS011;2865;53.114;9.130;2023-04-24T05:08:45;2.47;;;2.37;;
5684;SDS011;2865;53.114;9.130;2023-04-24T05:11:10;2.33;;;2.13;;
5684;SDS011;2865;53.114;9.130;2023-04-24T05:13:36;2.17;;;2.07;;
5684;SDS011;2865;53.114;9.130;2023-04-24T05:16:01;2.37;;;2.17;;
5684;SDS011;2865;53.114;9.130;2023-04-24T05:18:26;2.27;;;2.17;;
5684;SDS011;2865;53.114;9.130;2023-04-24T05:20:52;2.23;;;2.13;;
5684;SDS011;2865;53.114;9.130;2023-04-24T05:23:17;4.87;;;2.50;;
5684;SDS011;2865;53.114;9.130;2023-04-24T05:25:42;2.70;;;2.53;;
5684;SDS011;2865;53.114;9.130;2023-04-24T05:28:07;2.77;;;2.57;;
5684;SDS011;2865;53.114;9.130;2023-04-24T05:30:33;2.40;;;2.30;;
5684;SDS011;2865;53.114;9.130;2023-04-24T05:32:58;3.47;;;3.03;;
5684;SDS011;2865;53.114;9.130;2023-04-24T05:35:23;3.10;;;2.90;;
5684;SDS011;2865;53.114;9.130;2023-04-24T05:37:49;3.10;;;2.90;;
5684;SDS011;2865;53.114;9.130;2023-04-24T05:40:14;3.73;;;3.43;;
5684;SDS011;2865;53.114;9.130;2023-04-24T05:42:39;3.20;;;3.00;;
5684;SDS011;2865;53.114;9.130;2023-04-24T05:45:05;3.30;;;2.97;;
5684;SDS011;2865;53.114;9.130;2023-04-24T05:47:31;3.50;;;3.20;;
5684;SDS011;2865;53.114;9.130;2023-04-24T05:49:56;10.70;;;3.40;;
5684;SDS011;2865;53.114;9.130;2023-04-24T05:52:21;4.30;;;3.57;;
5684;SDS011;2865;53.114;9.130;2023-04-24T05:54:47;4.30;;;4.00;;
5684;SDS011;2865;53.114;9.130;2023-04-24T05:57:12;3.40;;;3.20;;
5684;SDS011;2865;53.114;9.130;2023-04-24T05:59:37;3.70;;;3.40;;
5684;SDS011;2865;53.114;9.130;2023-04-24T06:02:04;4.30;;;3.90;;
5684;SDS011;2865;53.114;9.130;2023-04-24T06:04:29;4.33;;;3.93;;
5684;SDS011;2865;53.114;9.130;2023-04-24T06:06:54;3.70;;;3.40;;
5684;SDS011;2865;53.114;9.130;2023-04-24T06:09:19;3.90;;;3.60;;
5684;SDS011;2865;53.114;9.130;2023-04-24T06:11:45;4.73;;;4.20;;
5684;SDS011;2865;53.114;9.130;2023-04-24T06:14:10;7.50;;;4.37;;
5684;SDS011;2865;53.114;9.130;2023-04-24T06:16:35;4.80;;;4.40;;
5684;SDS011;2865;53.114;9.130;2023-04-24T06:19:01;7.37;;;4.87;;
5684;SDS011;2865;53.114;9.130;2023-04-24T06:21:26;4.87;;;4.47;;
5684;SDS011;2865;53.114;9.130;2023-04-24T06:23:52;5.03;;;4.63;;
5684;SDS011;2865;53.114;9.130;2023-04-24T06:26:17;5.17;;;4.77;;
5684;SDS011;2865;53.114;9.130;2023-04-24T06:28:42;5.20;;;4.80;;
5684;SDS011;2865;53.114;9.130;2023-04-24T06:31:07;7.60;;;5.40;;
5684;SDS011;2865;53.114;9.130;2023-04-24T06:33:33;6.07;;;4.90;;
5684;SDS011;2865;53.114;9.130;2023-04-24T06:35:58;6.80;;;5.43;;
5684;SDS011;2865;53.114;9.130;2023-04-24T06:38:23;6.17;;;5.63;;
5684;SDS011;2865;53.114;9.130;2023-04-24T06:40:49;5.77;;;5.27;;
5684;SDS011;2865;53.114;9.130;2023-04-24T06:43:14;7.40;;;6.80;;
5684;SDS011;2865;53.114;9.130;2023-04-24T06:45:40;6.90;;;6.20;;
5684;SDS011;2865;53.114;9.130;2023-04-24T06:48:05;10.23;;;6.43;;
5684;SDS011;2865;53.114;9.130;2023-04-24T06:50:31;8.10;;;7.30;;
5684;SDS011;2865;53.114;9.130;2023-04-24T06:52:56;7.57;;;6.97;;
5684;SDS011;2865;53.114;9.130;2023-04-24T06:55:21;8.33;;;6.80;;
5684;SDS011;2865;53.114;9.130;2023-04-24T06:57:47;7.73;;;7.00;;
5684;SDS011;2865;53.114;9.130;2023-04-24T07:00:12;8.63;;;7.53;;
5684;SDS011;2865;53.114;9.130;2023-04-24T07:02:38;8.43;;;7.63;;
5684;SDS011;2865;53.114;9.130;2023-04-24T07:05:04;7.73;;;7.03;;
5684;SDS011;2865;53.114;9.130;2023-04-24T07:07:29;8.43;;;7.63;;
5684;SDS011;2865;53.114;9.130;2023-04-24T07:09:54;8.10;;;7.00;;
5684;SDS011;2865;53.114;9.130;2023-04-24T07:12:20;9.80;;;8.80;;
5684;SDS011;2865;53.114;9.130;2023-04-24T07:14:45;9.00;;;8.10;;
5684;SDS011;2865;53.114;9.130;2023-04-24T07:17:10;8.53;;;7.43;;
5684;SDS011;2865;53.114;9.130;2023-04-24T07:19:36;10.00;;;8.20;;
5684;SDS011;2865;53.114;9.130;2023-04-24T07:22:01;11.53;;;8.70;;
5684;SDS011;2865;53.114;9.130;2023-04-24T07:24:27;9.47;;;7.93;;
5684;SDS011;2865;53.114;9.130;2023-04-24T07:26:54;9.47;;;8.47;;
5684;SDS011;2865;53.114;9.130;2023-04-24T07:29:17;8.83;;;8.00;;
5684;SDS011;2865;53.114;9.130;2023-04-24T07:31:43;9.37;;;8.37;;
5684;SDS011;2865;53.114;9.130;2023-04-24T07:34:08;8.57;;;7.87;;
5684;SDS011;2865;53.114;9.130;2023-04-24T07:36:33;9.73;;;8.40;;
5684;SDS011;2865;53.114;9.130;2023-04-24T07:38:58;8.87;;;8.07;;
5684;SDS011;2865;53.114;9.130;2023-04-24T07:41:24;8.77;;;7.83;;
5684;SDS011;2865;53.114;9.130;2023-04-24T07:43:49;8.90;;;8.10;;
5684;SDS011;2865;53.114;9.130;2023-04-24T07:46:14;9.83;;;8.70;;
5684;SDS011;2865;53.114;9.130;2023-04-24T07:48:40;9.03;;;8.13;;
5684;SDS011;2865;53.114;9.130;2023-04-24T07:51:05;9.90;;;8.03;;
5684;SDS011;2865;53.114;9.130;2023-04-24T07:53:30;8.10;;;7.30;;
5684;SDS011;2865;53.114;9.130;2023-04-24T07:55:56;8.37;;;7.37;;
5684;SDS011;2865;53.114;9.130;2023-04-24T07:58:21;8.60;;;7.80;;
5684;SDS011;2865;53.114;9.130;2023-04-24T08:00:46;9.33;;;8.43;;
5684;SDS011;2865;53.114;9.130;2023-04-24T08:03:12;7.90;;;7.20;;
5684;SDS011;2865;53.114;9.130;2023-04-24T08:05:37;10.10;;;8.07;;
5684;SDS011;2865;53.114;9.130;2023-04-24T08:08:03;9.43;;;8.10;;
5684;SDS011;2865;53.114;9.130;2023-04-24T08:10:28;9.43;;;8.03;;
5684;SDS011;2865;53.114;9.130;2023-04-24T08:12:53;9.47;;;7.90;;
5684;SDS011;2865;53.114;9.130;2023-04-24T08:15:19;9.23;;;8.33;;
5684;SDS011;2865;53.114;9.130;2023-04-24T08:17:44;8.20;;;7.40;;
5684;SDS011;2865;53.114;9.130;2023-04-24T08:20:10;9.20;;;8.30;;
5684;SDS011;2865;53.114;9.130;2023-04-24T08:22:35;9.17;;;7.70;;
5684;SDS011;2865;53.114;9.130;2023-04-24T08:25:01;12.37;;;9.07;;
5684;SDS011;2865;53.114;9.130;2023-04-24T08:27:27;9.83;;;8.83;;
5684;SDS011;2865;53.114;9.130;2023-04-24T08:29:53;10.00;;;9.10;;
5684;SDS011;2865;53.114;9.130;2023-04-24T08:32:18;9.70;;;8.80;;
5684;SDS011;2865;53.114;9.130;2023-04-24T08:34:44;9.93;;;8.90;;
5684;SDS011;2865;53.114;9.130;2023-04-24T08:37:09;8.53;;;7.73;;
5684;SDS011;2865;53.114;9.130;2023-04-24T08:39:34;8.60;;;7.70;;
5684;SDS011;2865;53.114;9.130;2023-04-24T08:42:00;11.07;;;9.43;;
5684;SDS011;2865;53.114;9.130;2023-04-24T08:44:26;11.50;;;9.07;;
5684;SDS011;2865;53.114;9.130;2023-04-24T08:46:51;10.00;;;9.00;;
5684;SDS011;2865;53.114;9.130;2023-04-24T08:49:16;12.50;;;9.40;;
5684;SDS011;2865;53.114;9.130;2023-04-24T08:51:42;10.60;;;9.50;;
5684;SDS011;2865;53.114;9.130;2023-04-24T08:54:07;10.30;;;9.20;;
5684;SDS011;2865;53.114;9.130;2023-04-24T08:56:33;14.23;;;10.40;;
5684;SDS011;2865;53.114;9.130;2023-04-24T08:58:58;12.73;;;11.27;;
5684;SDS011;2865;53.114;9.130;2023-04-24T09:01:23;11.63;;;10.43;;
5684;SDS011;2865;53.114;9.130;2023-04-24T09:03:48;13.07;;;11.67;;
5684;SDS011;2865;53.114;9.130;2023-04-24T09:06:14;15.67;;;12.17;;
5684;SDS011;2865;53.114;9.130;2023-04-24T09:08:39;14.27;;;11.73;;
5684;SDS011;2865;53.114;9.130;2023-04-24T09:11:04;14.63;;;11.93;;
5684;SDS011;2865;53.114;9.130;2023-04-24T09:13:30;12.93;;;11.47;;
5684;SDS011;2865;53.114;9.130;2023-04-24T09:15:55;15.43;;;11.60;;
5684;SDS011;2865;53.114;9.130;2023-04-24T09:18:20;16.60;;;12.53;;
5684;SDS011;2865;53.114;9.130;2023-04-24T09:20:56;13.80;;;12.13;;
5684;SDS011;2865;53.114;9.130;2023-04-24T09:23:17;14.67;;;12.03;;
5684;SDS011;2865;53.114;9.130;2023-04-24T09:25:42;13.33;;;11.97;;
5684;SDS011;2865;53.114;9.130;2023-04-24T09:28:08;13.70;;;11.60;;
5684;SDS011;2865;53.114;9.130;2023-04-24T09:30:33;15.70;;;11.30;;
5684;SDS011;2865;53.114;9.130;2023-04-24T09:35:35;11.63;;;10.40;;
5684;SDS011;2865;53.114;9.130;2023-04-24T09:38:00;14.70;;;11.60;;
5684;SDS011;2865;53.114;9.130;2023-04-24T09:40:26;16.60;;;11.30;;
5684;SDS011;2865;53.114;9.130;2023-04-24T09:42:52;14.87;;;12.43;;
5684;SDS011;2865;53.114;9.130;2023-04-24T09:45:16;13.67;;;11.03;;
5684;SDS011;2865;53.114;9.130;2023-04-24T09:47:42;13.93;;;11.93;;
5684;SDS011;2865;53.114;9.130;2023-04-24T09:50:09;21.13;;;11.50;;
5684;SDS011;2865;53.114;9.130;2023-04-24T09:52:34;13.07;;;11.67;;
5684;SDS011;2865;53.114;9.130;2023-04-24T09:55:00;14.27;;;10.07;;
5684;SDS011;2865;53.114;9.130;2023-04-24T09:57:25;15.03;;;10.23;;
5684;SDS011;2865;53.114;9.130;2023-04-24T09:59:52;12.90;;;10.73;;
5684;SDS011;2865;53.114;9.130;2023-04-24T10:02:17;10.80;;;9.70;;
5684;SDS011;2865;53.114;9.130;2023-04-24T10:04:41;12.07;;;10.93;;
5684;SDS011;2865;53.114;9.130;2023-04-24T10:07:07;14.30;;;10.27;;
5684;SDS011;2865;53.114;9.130;2023-04-24T10:09:32;11.93;;;9.80;;
5684;SDS011;2865;53.114;9.130;2023-04-24T10:11:57;10.40;;;9.40;;
5684;SDS011;2865;53.114;9.130;2023-04-24T10:14:23;10.70;;;9.70;;
5684;SDS011;2865;53.114;9.130;2023-04-24T10:16:49;11.20;;;10.10;;
5684;SDS011;2865;53.114;9.130;2023-04-24T10:19:14;13.40;;;9.70;;
5684;SDS011;2865;53.114;9.130;2023-04-24T10:21:40;9.87;;;8.97;;
5684;SDS011;2865;53.114;9.130;2023-04-24T10:24:05;11.60;;;8.30;;
5684;SDS011;2865;53.114;9.130;2023-04-24T10:26:31;10.23;;;9.10;;
5684;SDS011;2865;53.114;9.130;2023-04-24T10:28:57;10.23;;;7.90;;
5684;SDS011;2865;53.114;9.130;2023-04-24T10:31:21;10.60;;;8.03;;
5684;SDS011;2865;53.114;9.130;2023-04-24T10:33:47;14.23;;;9.77;;
5684;SDS011;2865;53.114;9.130;2023-04-24T10:36:12;10.40;;;8.57;;
5684;SDS011;2865;53.114;9.130;2023-04-24T10:38:38;8.97;;;8.10;;
5684;SDS011;2865;53.114;9.130;2023-04-24T10:41:07;8.03;;;7.33;;
5684;SDS011;2865;53.114;9.130;2023-04-24T10:43:32;8.00;;;7.20;;
5684;SDS011;2865;53.114;9.130;2023-04-24T10:46:00;8.83;;;7.37;;
5684;SDS011;2865;53.114;9.130;2023-04-24T10:48:26;8.03;;;7.07;;
5684;SDS011;2865;53.114;9.130;2023-04-24T10:50:52;7.17;;;6.53;;
5684;SDS011;2865;53.114;9.130;2023-04-24T10:53:20;19.50;;;7.50;;
5684;SDS011;2865;53.114;9.130;2023-04-24T10:55:46;7.90;;;7.20;;
5684;SDS011;2865;53.114;9.130;2023-04-24T10:58:10;7.20;;;6.57;;
5684;SDS011;2865;53.114;9.130;2023-04-24T11:00:37;7.07;;;6.37;;
5684;SDS011;2865;53.114;9.130;2023-04-24T11:03:03;7.37;;;6.77;;
5684;SDS011;2865;53.114;9.130;2023-04-24T11:10:39;7.47;;;6.77;;
5684;SDS011;2865;53.114;9.130;2023-04-24T11:13:04;7.40;;;6.70;;
5684;SDS011;2865;53.114;9.130;2023-04-24T11:15:29;7.40;;;6.80;;
5684;SDS011;2865;53.114;9.130;2023-04-24T11:17:55;8.40;;;7.50;;
5684;SDS011;2865;53.114;9.130;2023-04-24T11:20:23;7.73;;;7.03;;
5684;SDS011;2865;53.114;9.130;2023-04-24T11:22:45;8.97;;;7.43;;
5684;SDS011;2865;53.114;9.130;2023-04-24T11:25:11;7.70;;;6.90;;
5684;SDS011;2865;53.114;9.130;2023-04-24T11:27:38;8.50;;;7.70;;
5684;SDS011;2865;53.114;9.130;2023-04-24T11:30:04;7.47;;;6.63;;
5684;SDS011;2865;53.114;9.130;2023-04-24T11:32:36;7.43;;;6.83;;
5684;SDS011;2865;53.114;9.130;2023-04-24T11:35:03;13.00;;;8.70;;
5684;SDS011;2865;53.114;9.130;2023-04-24T11:37:35;9.37;;;8.17;;
5684;SDS011;2865;53.114;9.130;2023-04-24T11:40:01;13.87;;;9.77;;
5684;SDS011;2865;53.114;9.130;2023-04-24T11:42:27;7.40;;;6.80;;
5684;SDS011;2865;53.114;9.130;2023-04-24T11:44:52;10.23;;;7.63;;
5684;SDS011;2865;53.114;9.130;2023-04-24T11:47:17;11.10;;;8.53;;
5684;SDS011;2865;53.114;9.130;2023-04-24T11:49:43;8.87;;;7.10;;
5684;SDS011;2865;53.114;9.130;2023-04-24T11:52:08;8.23;;;7.43;;
5684;SDS011;2865;53.114;9.130;2023-04-24T11:54:33;8.00;;;7.20;;
5684;SDS011;2865;53.114;9.130;2023-04-24T11:56:59;6.63;;;6.03;;
5684;SDS011;2865;53.114;9.130;2023-04-24T11:59:25;7.27;;;6.57;;
5684;SDS011;2865;53.114;9.130;2023-04-24T12:01:50;8.97;;;6.10;;
5684;SDS011;2865;53.114;9.130;2023-04-24T12:04:16;7.87;;;6.70;;
5684;SDS011;2865;53.114;9.130;2023-04-24T12:09:18;7.30;;;6.60;;
5684;SDS011;2865;53.114;9.130;2023-04-24T12:11:52;6.93;;;6.30;;
5684;SDS011;2865;53.114;9.130;2023-04-24T12:14:18;6.50;;;5.90;;
5684;SDS011;2865;53.114;9.130;2023-04-24T12:16:47;5.97;;;5.20;;
5684;SDS011;2865;53.114;9.130;2023-04-24T12:19:08;6.87;;;5.43;;
5684;SDS011;2865;53.114;9.130;2023-04-24T12:21:34;5.87;;;5.40;;
5684;SDS011;2865;53.114;9.130;2023-04-24T12:23:59;7.63;;;5.60;;
5684;SDS011;2865;53.114;9.130;2023-04-24T12:26:24;6.50;;;5.93;;
5684;SDS011;2865;53.114;9.130;2023-04-24T12:28:50;7.67;;;7.00;;
5684;SDS011;2865;53.114;9.130;2023-04-24T12:31:16;6.83;;;6.10;;
5684;SDS011;2865;53.114;9.130;2023-04-24T12:33:41;5.67;;;5.27;;
5684;SDS011;2865;53.114;9.130;2023-04-24T12:36:06;5.17;;;4.73;;
5684;SDS011;2865;53.114;9.130;2023-04-24T12:38:32;5.73;;;5.23;;
5684;SDS011;2865;53.114;9.130;2023-04-24T12:41:05;4.87;;;4.47;;
5684;SDS011;2865;53.114;9.130;2023-04-24T12:43:29;5.00;;;4.60;;
5684;SDS011;2865;53.114;9.130;2023-04-24T12:45:55;4.67;;;4.20;;
5684;SDS011;2865;53.114;9.130;2023-04-24T12:48:20;4.60;;;4.20;;
5684;SDS011;2865;53.114;9.130;2023-04-24T12:50:45;4.70;;;4.30;;
5684;SDS011;2865;53.114;9.130;2023-04-24T12:53:11;4.77;;;4.40;;
5684;SDS011;2865;53.114;9.130;2023-04-24T12:55:36;5.00;;;4.47;;
5684;SDS011;2865;53.114;9.130;2023-04-24T12:58:01;3.93;;;3.63;;
5684;SDS011;2865;53.114;9.130;2023-04-24T13:00:27;3.60;;;3.30;;
5684;SDS011;2865;53.114;9.130;2023-04-24T13:02:52;3.70;;;3.40;;
5684;SDS011;2865;53.114;9.130;2023-04-24T13:05:17;3.70;;;3.50;;
5684;SDS011;2865;53.114;9.130;2023-04-24T13:07:43;7.30;;;3.53;;
5684;SDS011;2865;53.114;9.130;2023-04-24T13:10:08;3.30;;;3.10;;
5684;SDS011;2865;53.114;9.130;2023-04-24T13:12:34;3.90;;;3.60;;
5684;SDS011;2865;53.114;9.130;2023-04-24T13:14:59;4.13;;;3.80;;
5684;SDS011;2865;53.114;9.130;2023-04-24T13:17:25;4.07;;;3.77;;
5684;SDS011;2865;53.114;9.130;2023-04-24T13:19:50;4.03;;;3.73;;
5684;SDS011;2865;53.114;9.130;2023-04-24T13:22:15;5.40;;;4.00;;
5684;SDS011;2865;53.114;9.130;2023-04-24T13:24:40;4.10;;;3.80;;
5684;SDS011;2865;53.114;9.130;2023-04-24T13:27:06;4.50;;;4.20;;
5684;SDS011;2865;53.114;9.130;2023-04-24T13:29:31;4.53;;;4.13;;
5684;SDS011;2865;53.114;9.130;2023-04-24T13:31:56;4.83;;;4.40;;
5684;SDS011;2865;53.114;9.130;2023-04-24T13:34:23;4.97;;;4.57;;
5684;SDS011;2865;53.114;9.130;2023-04-24T13:36:47;5.20;;;4.70;;
5684;SDS011;2865;53.114;9.130;2023-04-24T13:39:13;5.23;;;4.73;;
5684;SDS011;2865;53.114;9.130;2023-04-24T13:41:38;5.13;;;4.73;;
5684;SDS011;2865;53.114;9.130;2023-04-24T13:44:04;5.60;;;5.10;;
5684;SDS011;2865;53.114;9.130;2023-04-24T13:46:29;7.13;;;4.60;;
5684;SDS011;2865;53.114;9.130;2023-04-24T13:48:54;5.47;;;4.60;;
5684;SDS011;2865;53.114;9.130;2023-04-24T13:51:20;8.07;;;5.63;;
5684;SDS011;2865;53.114;9.130;2023-04-24T13:53:45;7.57;;;6.60;;
5684;SDS011;2865;53.114;9.130;2023-04-24T13:56:10;13.13;;;7.07;;
5684;SDS011;2865;53.114;9.130;2023-04-24T13:58:36;10.40;;;7.47;;
5684;SDS011;2865;53.114;9.130;2023-04-24T14:01:02;17.23;;;8.50;;
5684;SDS011;2865;53.114;9.130;2023-04-24T14:03:27;8.37;;;7.50;;
5684;SDS011;2865;53.114;9.130;2023-04-24T14:05:53;11.37;;;6.80;;
5684;SDS011;2865;53.114;9.130;2023-04-24T14:08:18;14.33;;;7.60;;
5684;SDS011;2865;53.114;9.130;2023-04-24T14:10:43;12.30;;;7.37;;
5684;SDS011;2865;53.114;9.130;2023-04-24T14:13:09;8.20;;;6.60;;
5684;SDS011;2865;53.114;9.130;2023-04-24T14:15:35;10.67;;;6.33;;
5684;SDS011;2865;53.114;9.130;2023-04-24T14:18:00;10.17;;;6.50;;
5684;SDS011;2865;53.114;9.130;2023-04-24T14:20:26;6.57;;;5.90;;
5684;SDS011;2865;53.114;9.130;2023-04-24T14:22:51;5.90;;;5.30;;
5684;SDS011;2865;53.114;9.130;2023-04-24T14:25:17;7.33;;;5.77;;
5684;SDS011;2865;53.114;9.130;2023-04-24T14:27:42;6.53;;;5.30;;
5684;SDS011;2865;53.114;9.130;2023-04-24T14:30:08;9.93;;;5.43;;
5684;SDS011;2865;53.114;9.130;2023-04-24T14:32:33;6.33;;;5.73;;
5684;SDS011;2865;53.114;9.130;2023-04-24T14:34:58;8.23;;;5.87;;
5684;SDS011;2865;53.114;9.130;2023-04-24T14:37:24;7.83;;;6.00;;
5684;SDS011;2865;53.114;9.130;2023-04-24T14:39:49;6.27;;;5.77;;
5684;SDS011;2865;53.114;9.130;2023-04-24T14:42:14;8.50;;;5.80;;
5684;SDS011;2865;53.114;9.130;2023-04-24T14:44:40;9.40;;;6.17;;
5684;SDS011;2865;53.114;9.130;2023-04-24T14:47:05;10.20;;;6.40;;
5684;SDS011;2865;53.114;9.130;2023-04-24T14:49:30;9.07;;;6.40;;
5684;SDS011;2865;53.114;9.130;2023-04-24T14:51:55;7.53;;;5.97;;
5684;SDS011;2865;53.114;9.130;2023-04-24T14:54:21;12.67;;;6.50;;
5684;SDS011;2865;53.114;9.130;2023-04-24T14:56:46;10.57;;;6.60;;
5684;SDS011;2865;53.114;9.130;2023-04-24T14:59:12;15.63;;;5.83;;
5684;SDS011;2865;53.114;9.130;2023-04-24T15:01:37;12.07;;;5.70;;
5684;SDS011;2865;53.114;9.130;2023-04-24T15:04:02;8.97;;;5.50;;
5684;SDS011;2865;53.114;9.130;2023-04-24T15:06:29;10.00;;;5.93;;
5684;SDS011;2865;53.114;9.130;2023-04-24T15:08:53;8.00;;;5.67;;
5684;SDS011;2865;53.114;9.130;2023-04-24T15:11:18;8.27;;;4.70;;